Time;durP1;ratioP1;P1;durP2;ratioP2;P2;SDS_P1;SDS_P2;PMS_P1;PMS_P2;Temp;Humidity;BMP_temperature;BMP_pressure;BME280_temperature;BME280_humidity;BME280_pressure;Samples;Min_cycle;Max_cycle;Signal;HPM_P1;HPM_P2
2022/06/29 00:01:05;;;;;;;14.35;9.00;;;;;;;;;;10442383;28;20029;-72
2022/06/29 00:06:05;;;;;;;13.25;9.18;;;;;;;;;;10442670;28;20027;-73
2022/06/29 00:11:05;;;;;;;19.30;9.20;;;;;;;;;;10444064;28;20028;-77
2022/06/29 00:16:06;;;;;;;15.40;9.33;;;;;;;;;;10442941;28;20055;-73
2022/06/29 00:21:06;;;;;;;13.70;9.93;;;;;;;;;;10446034;28;20110;-77
2022/06/29 00:26:06;;;;;;;20.08;11.18;;;;;;;;;;10444575;28;20017;-72
2022/06/29 00:31:06;;;;;;;17.92;11.50;;;;;;;;;;10445194;28;20381;-71
2022/06/29 00:36:07;;;;;;;18.20;11.73;;;;;;;;;;10445184;28;20021;-75
2022/06/29 00:41:07;;;;;;;16.60;11.15;;;;;;;;;;10439545;28;20035;-73
2022/06/29 00:46:07;;;;;;;18.52;12.23;;;;;;;;;;10539106;23;20065;-76
2022/06/29 00:51:10;;;;;;;17.03;12.37;;;;;;;;;;10444079;28;20514;-76
2022/06/29 00:56:10;;;;;;;15.25;11.25;;;;;;;;;;10437394;28;20025;-79
2022/06/29 01:01:12;;;;;;;16.52;10.90;;;;;;;;;;10440378;28;20475;-74
2022/06/29 01:06:12;;;;;;;13.80;10.40;;;;;;;;;;10443103;28;20475;-72
2022/06/29 01:11:13;;;;;;;11.80;9.18;;;;;;;;;;10427666;28;20075;-77
2022/06/29 01:16:13;;;;;;;20.00;10.63;;;;;;;;;;10438616;28;20033;-75
2022/06/29 01:21:13;;;;;;;15.93;11.48;;;;;;;;;;10441529;28;20051;-73
2022/06/29 01:26:14;;;;;;;22.53;11.17;;;;;;;;;;10444021;28;20102;-75
2022/06/29 01:31:14;;;;;;;21.45;10.60;;;;;;;;;;10442981;28;20800;-73
2022/06/29 01:36:16;;;;;;;13.82;9.90;;;;;;;;;;10458050;28;20469;-77
2022/06/29 01:41:16;;;;;;;14.32;10.38;;;;;;;;;;10426259;28;20021;-77
2022/06/29 01:46:17;;;;;;;13.50;9.23;;;;;;;;;;10441468;28;20877;-74
2022/06/29 01:51:17;;;;;;;14.97;10.27;;;;;;;;;;10441482;28;20033;-71
2022/06/29 01:56:17;;;;;;;16.90;9.90;;;;;;;;;;10442474;28;20021;-75
2022/06/29 02:01:18;;;;;;;16.47;9.47;;;;;;;;;;10441789;28;20025;-78
2022/06/29 02:06:18;;;;;;;13.33;10.37;;;;;;;;;;10442721;28;20491;-72
2022/06/29 02:11:19;;;;;;;21.55;10.07;;;;;;;;;;10442043;28;20052;-73
2022/06/29 02:16:20;;;;;;;19.85;10.27;;;;;;;;;;10442116;28;20021;-76
2022/06/29 02:21:20;;;;;;;15.37;9.10;;;;;;;;;;10442367;28;20438;-72
2022/06/29 02:26:20;;;;;;;16.27;8.93;;;;;;;;;;10444509;28;20021;-73
2022/06/29 02:36:39;;;;;;;11.85;8.10;;;;;;;;;;10443920;28;20024;-74
2022/06/29 02:41:39;;;;;;;10.32;7.63;;;;;;;;;;10441489;28;20365;-73
2022/06/29 02:46:40;;;;;;;10.67;7.53;;;;;;;;;;10441221;28;20052;-73
2022/06/29 02:51:40;;;;;;;13.43;7.35;;;;;;;;;;10441164;28;20021;-72
2022/06/29 02:56:40;;;;;;;8.52;6.57;;;;;;;;;;10445378;28;20023;-72
2022/06/29 03:01:40;;;;;;;11.95;6.93;;;;;;;;;;10446645;28;20021;-73
2022/06/29 03:06:41;;;;;;;13.30;7.17;;;;;;;;;;10448950;28;20497;-72
2022/06/29 03:11:42;;;;;;;13.90;6.32;;;;;;;;;;10449926;28;20020;-73
2022/06/29 03:16:42;;;;;;;11.63;6.82;;;;;;;;;;10450618;28;20495;-73
2022/06/29 03:21:43;;;;;;;18.27;9.02;;;;;;;;;;10447599;28;20068;-77
2022/06/29 03:26:44;;;;;;;12.23;7.00;;;;;;;;;;10447978;28;20041;-73
2022/06/29 03:31:44;;;;;;;10.07;5.82;;;;;;;;;;10430128;28;20388;-76
2022/06/29 03:36:44;;;;;;;11.93;7.38;;;;;;;;;;10447889;28;20024;-74
2022/06/29 03:41:44;;;;;;;9.38;7.50;;;;;;;;;;10445308;28;20017;-72
2022/06/29 03:46:45;;;;;;;16.00;8.40;;;;;;;;;;10446202;28;20150;-73
2022/06/29 03:51:45;;;;;;;18.65;8.20;;;;;;;;;;10446477;28;20028;-72
2022/06/29 03:56:45;;;;;;;12.77;8.45;;;;;;;;;;10447076;28;20021;-73
2022/06/29 04:01:46;;;;;;;14.82;8.48;;;;;;;;;;10445390;28;20066;-73
2022/06/29 04:06:46;;;;;;;12.90;10.07;;;;;;;;;;10445450;28;20025;-76
2022/06/29 04:11:49;;;;;;;17.77;12.82;;;;;;;;;;10443483;28;20028;-73
2022/06/29 04:16:50;;;;;;;22.15;12.52;;;;;;;;;;10445598;28;20025;-78
2022/06/29 04:21:51;;;;;;;21.05;11.38;;;;;;;;;;10444864;28;20033;-73
2022/06/29 04:26:51;;;;;;;21.10;9.02;;;;;;;;;;10429552;28;20020;-75
2022/06/29 04:31:51;;;;;;;14.05;8.93;;;;;;;;;;10445299;28;20025;-71
2022/06/29 04:36:52;;;;;;;16.98;9.18;;;;;;;;;;10442495;28;20025;-71
2022/06/29 04:41:53;;;;;;;14.13;9.17;;;;;;;;;;10437542;28;20017;-70
2022/06/29 04:46:54;;;;;;;17.20;8.43;;;;;;;;;;10439565;28;20060;-71
2022/06/29 04:51:55;;;;;;;13.68;7.97;;;;;;;;;;10440572;28;20028;-78
2022/06/29 04:56:55;;;;;;;16.67;8.30;;;;;;;;;;10444538;28;20017;-76
2022/06/29 05:01:56;;;;;;;12.40;9.20;;;;;;;;;;10443322;28;20017;-72
2022/06/29 05:06:56;;;;;;;13.00;8.05;;;;;;;;;;10444657;28;20040;-74
2022/06/29 05:11:56;;;;;;;18.38;9.45;;;;;;;;;;10436283;28;20432;-74
2022/06/29 05:16:56;;;;;;;15.45;8.60;;;;;;;;;;10426916;28;20146;-74
2022/06/29 05:21:57;;;;;;;14.68;9.50;;;;;;;;;;10438192;28;20016;-74
2022/06/29 05:26:57;;;;;;;14.60;9.80;;;;;;;;;;10427351;28;20020;-78
2022/06/29 05:31:57;;;;;;;32.15;12.55;;;;;;;;;;10435079;28;20078;-76
2022/06/29 05:36:57;;;;;;;15.70;9.50;;;;;;;;;;10422003;28;20032;-74
2022/06/29 05:41:58;;;;;;;13.57;8.48;;;;;;;;;;10415485;28;20517;-76
2022/06/29 05:46:58;;;;;;;19.38;8.85;;;;;;;;;;10412810;28;20048;-74
2022/06/29 05:51:58;;;;;;;13.77;7.90;;;;;;;;;;10428414;28;20054;-76
2022/06/29 05:56:59;;;;;;;11.48;8.38;;;;;;;;;;10430581;28;20439;-71
2022/06/29 06:01:59;;;;;;;14.03;6.47;;;;;;;;;;10424909;28;20537;-70
2022/06/29 06:06:59;;;;;;;10.90;5.85;;;;;;;;;;10427221;28;20076;-71
2022/06/29 06:11:59;;;;;;;17.23;8.82;;;;;;;;;;10430235;28;20032;-71
2022/06/29 06:17:00;;;;;;;14.85;8.20;;;;;;;;;;10430666;28;20025;-74
2022/06/29 06:22:00;;;;;;;14.60;9.20;;;;;;;;;;10420752;28;20025;-70
2022/06/29 06:27:00;;;;;;;18.58;10.02;;;;;;;;;;10416705;28;20083;-74
2022/06/29 06:32:01;;;;;;;11.32;8.93;;;;;;;;;;10421891;28;20032;-78
2022/06/29 06:37:01;;;;;;;11.18;7.70;;;;;;;;;;10417284;28;20021;-75
2022/06/29 06:42:02;;;;;;;26.83;10.07;;;;;;;;;;10422127;28;20026;-74
2022/06/29 06:47:03;;;;;;;15.93;9.10;;;;;;;;;;10421461;28;20042;-72
2022/06/29 06:52:03;;;;;;;18.53;9.33;;;;;;;;;;10438159;28;20029;-77
2022/06/29 06:57:03;;;;;;;14.20;8.97;;;;;;;;;;10439535;28;20025;-72
2022/06/29 07:02:04;;;;;;;10.45;7.55;;;;;;;;;;10434278;28;20386;-74
2022/06/29 07:07:05;;;;;;;18.42;7.45;;;;;;;;;;10437889;28;20573;-76
2022/06/29 07:12:05;;;;;;;11.93;7.05;;;;;;;;;;10432948;28;20589;-71
2022/06/29 07:17:05;;;;;;;9.82;6.72;;;;;;;;;;10418554;28;20360;-73
2022/06/29 07:22:06;;;;;;;14.77;7.40;;;;;;;;;;10435242;28;20052;-72
2022/06/29 07:27:06;;;;;;;9.05;4.88;;;;;;;;;;10434835;28;20028;-78
2022/06/29 07:32:06;;;;;;;9.27;4.80;;;;;;;;;;10437525;28;20063;-72
2022/06/29 07:37:07;;;;;;;10.13;5.30;;;;;;;;;;10436810;28;20117;-75
2022/06/29 07:42:07;;;;;;;10.15;6.15;;;;;;;;;;10434167;28;20031;-76
2022/06/29 07:47:07;;;;;;;9.15;5.25;;;;;;;;;;10438001;28;20132;-71
2022/06/29 07:52:07;;;;;;;14.15;5.57;;;;;;;;;;10436311;28;20028;-74
2022/06/29 07:57:08;;;;;;;9.23;5.35;;;;;;;;;;10437043;28;20021;-75
2022/06/29 08:02:08;;;;;;;15.33;6.33;;;;;;;;;;10435117;28;20025;-74
2022/06/29 08:07:08;;;;;;;7.53;4.97;;;;;;;;;;10432286;28;20086;-76
2022/06/29 08:12:09;;;;;;;10.10;5.20;;;;;;;;;;10435784;28;20036;-73
2022/06/29 08:17:09;;;;;;;7.73;4.33;;;;;;;;;;10419968;28;20021;-74
2022/06/29 08:22:09;;;;;;;7.93;4.00;;;;;;;;;;10434338;28;20028;-72
2022/06/29 08:27:10;;;;;;;6.60;4.63;;;;;;;;;;10432722;28;20243;-75
2022/06/29 08:32:10;;;;;;;5.95;3.65;;;;;;;;;;10435256;28;20021;-72
2022/06/29 08:37:10;;;;;;;11.27;3.80;;;;;;;;;;10435902;28;20102;-75
2022/06/29 08:42:11;;;;;;;10.10;4.32;;;;;;;;;;10434028;28;20086;-74
2022/06/29 08:47:11;;;;;;;15.32;4.20;;;;;;;;;;10433109;28;20060;-75
2022/06/29 08:52:11;;;;;;;6.18;3.13;;;;;;;;;;10432145;28;20025;-72
2022/06/29 08:57:12;;;;;;;5.70;3.03;;;;;;;;;;10433414;28;20017;-73
2022/06/29 09:02:13;;;;;;;8.52;3.10;;;;;;;;;;10430425;28;20021;-75
2022/06/29 09:07:13;;;;;;;13.55;3.10;;;;;;;;;;10433865;28;20030;-72
2022/06/29 09:12:17;;;;;;;4.80;2.63;;;;;;;;;;10434573;28;20020;-72
2022/06/29 09:17:17;;;;;;;6.50;3.22;;;;;;;;;;10429805;28;20025;-76
2022/06/29 09:22:18;;;;;;;8.82;2.90;;;;;;;;;;10432150;28;20474;-72
2022/06/29 09:27:18;;;;;;;8.07;2.63;;;;;;;;;;10432861;28;20145;-72
2022/06/29 09:32:19;;;;;;;6.53;3.30;;;;;;;;;;10430423;28;20041;-78
2022/06/29 09:37:23;;;;;;;5.07;2.28;;;;;;;;;;10432225;28;20108;-77
2022/06/29 09:42:24;;;;;;;3.73;2.50;;;;;;;;;;10431818;28;20033;-76
2022/06/29 09:47:24;;;;;;;7.47;2.28;;;;;;;;;;10431952;28;20073;-72
2022/06/29 09:52:26;;;;;;;4.70;2.50;;;;;;;;;;10432911;28;20032;-72
2022/06/29 09:57:30;;;;;;;2.63;1.75;;;;;;;;;;10424078;28;20053;-76
2022/06/29 10:02:37;;;;;;;4.90;2.20;;;;;;;;;;10420646;28;20024;-76
2022/06/29 10:07:39;;;;;;;3.75;2.17;;;;;;;;;;10422658;28;20032;-77
2022/06/29 10:18:21;;;;;;;3.47;1.65;;;;;;;;;;10424970;28;20041;-70
2022/06/29 10:23:40;;;;;;;6.80;1.65;;;;;;;;;;10435957;28;20036;-77
2022/06/29 10:28:40;;;;;;;4.38;1.85;;;;;;;;;;10426608;28;20021;-77
2022/06/29 10:33:40;;;;;;;4.35;2.03;;;;;;;;;;10421184;28;20482;-76
2022/06/29 10:38:50;;;;;;;3.85;1.58;;;;;;;;;;10423225;28;20526;-73
2022/06/29 10:43:50;;;;;;;9.82;1.70;;;;;;;;;;10429029;28;20384;-76
2022/06/29 10:49:09;;;;;;;5.63;1.80;;;;;;;;;;10429867;28;20049;-76
2022/06/29 10:54:29;;;;;;;3.55;1.42;;;;;;;;;;10427412;28;20415;-73
2022/06/29 10:59:31;;;;;;;2.67;1.50;;;;;;;;;;10415645;28;20115;-77
2022/06/29 11:04:31;;;;;;;3.28;1.88;;;;;;;;;;10432202;28;20435;-75
2022/06/29 11:20:22;;;;;;;4.57;1.95;;;;;;;;;;10456151;28;20060;-75
2022/06/29 11:25:22;;;;;;;4.30;2.42;;;;;;;;;;10443695;28;20499;-75
2022/06/29 11:30:22;;;;;;;3.72;2.53;;;;;;;;;;10439353;28;20124;-72
2022/06/29 11:35:25;;;;;;;5.23;2.70;;;;;;;;;;10422008;28;20033;-75
2022/06/29 11:40:28;;;;;;;6.07;2.75;;;;;;;;;;10433769;28;20103;-77
2022/06/29 11:45:34;;;;;;;9.23;2.58;;;;;;;;;;10423213;28;20128;-75
2022/06/29 11:50:40;;;;;;;4.33;2.67;;;;;;;;;;10420206;28;20108;-72
2022/06/29 11:55:42;;;;;;;8.53;2.30;;;;;;;;;;10425760;28;20032;-72
2022/06/29 12:00:43;;;;;;;2.88;2.40;;;;;;;;;;10432554;28;20032;-71
2022/06/29 12:05:59;;;;;;;5.85;2.95;;;;;;;;;;10435696;28;20021;-76
2022/06/29 12:10:59;;;;;;;4.68;2.85;;;;;;;;;;10432209;28;20082;-74
2022/06/29 12:15:59;;;;;;;5.70;2.70;;;;;;;;;;10434290;28;20021;-75
2022/06/29 12:21:00;;;;;;;4.37;2.40;;;;;;;;;;10432271;28;20017;-76
2022/06/29 12:26:00;;;;;;;3.63;2.10;;;;;;;;;;10437557;28;20041;-76
2022/06/29 12:31:01;;;;;;;4.00;2.45;;;;;;;;;;10432681;28;20021;-79
2022/06/29 12:36:01;;;;;;;3.03;2.45;;;;;;;;;;10428745;28;20031;-72
2022/06/29 12:41:01;;;;;;;7.00;2.22;;;;;;;;;;10417282;28;20021;-75
2022/06/29 12:46:01;;;;;;;3.13;1.97;;;;;;;;;;10400721;28;20499;-75
2022/06/29 12:51:02;;;;;;;2.90;1.60;;;;;;;;;;10417951;28;20024;-75
2022/06/29 12:56:03;;;;;;;2.50;2.00;;;;;;;;;;10426381;28;20017;-75
2022/06/29 13:01:03;;;;;;;5.20;2.10;;;;;;;;;;10432858;28;20055;-78
2022/06/29 13:06:03;;;;;;;3.80;2.00;;;;;;;;;;10431666;28;20021;-71
2022/06/29 13:11:04;;;;;;;3.30;2.60;;;;;;;;;;10435159;28;20487;-72
2022/06/29 13:16:04;;;;;;;4.95;2.40;;;;;;;;;;10429291;28;20411;-74
2022/06/29 13:21:04;;;;;;;5.77;2.10;;;;;;;;;;10418238;23;20413;-77
2022/06/29 13:26:05;;;;;;;5.15;2.03;;;;;;;;;;10389939;28;20790;-78
2022/06/29 13:31:05;;;;;;;2.75;1.83;;;;;;;;;;10387485;28;20040;-75
2022/06/29 13:36:05;;;;;;;2.67;1.70;;;;;;;;;;10387293;28;20026;-74
2022/06/29 13:41:05;;;;;;;10.00;2.50;;;;;;;;;;10373662;28;20026;-73
2022/06/29 13:46:06;;;;;;;3.95;1.70;;;;;;;;;;10369712;28;20024;-73
2022/06/29 13:51:06;;;;;;;2.45;1.85;;;;;;;;;;10409684;28;20116;-75
2022/06/29 13:56:06;;;;;;;3.55;1.75;;;;;;;;;;10410408;28;20021;-76
2022/06/29 14:01:07;;;;;;;5.00;2.22;;;;;;;;;;10404865;28;20052;-72
2022/06/29 14:06:07;;;;;;;4.10;2.20;;;;;;;;;;10351275;28;20026;-72
2022/06/29 14:11:07;;;;;;;2.10;1.90;;;;;;;;;;10353857;28;20040;-78
2022/06/29 14:16:08;;;;;;;5.33;1.87;;;;;;;;;;10352094;28;20468;-70
2022/06/29 14:21:08;;;;;;;3.78;1.80;;;;;;;;;;10384268;28;20049;-72
2022/06/29 14:26:08;;;;;;;5.17;2.37;;;;;;;;;;10351659;28;20018;-76
2022/06/29 14:31:09;;;;;;;5.10;1.90;;;;;;;;;;10349805;28;20492;-72
2022/06/29 14:36:09;;;;;;;6.63;3.00;;;;;;;;;;10357175;28;20508;-72
2022/06/29 14:41:09;;;;;;;4.50;2.15;;;;;;;;;;10353644;28;20285;-72
2022/06/29 14:46:10;;;;;;;3.20;1.90;;;;;;;;;;10383316;22;20056;-73
2022/06/29 14:51:11;;;;;;;6.07;2.40;;;;;;;;;;10439686;28;20364;-78
2022/06/29 14:56:12;;;;;;;3.63;2.03;;;;;;;;;;10455005;28;20013;-76
2022/06/29 15:01:12;;;;;;;2.88;2.15;;;;;;;;;;10444708;28;20037;-73
2022/06/29 15:06:14;;;;;;;5.47;2.43;;;;;;;;;;10441620;28;20012;-72
2022/06/29 15:11:14;;;;;;;2.80;1.75;;;;;;;;;;10441641;28;20070;-74
2022/06/29 15:16:15;;;;;;;4.18;2.25;;;;;;;;;;10426668;28;20487;-76
2022/06/29 15:21:16;;;;;;;8.07;2.53;;;;;;;;;;10442914;28;20044;-77
2022/06/29 15:26:16;;;;;;;4.28;2.58;;;;;;;;;;10442123;28;20025;-73
2022/06/29 15:31:17;;;;;;;2.78;2.38;;;;;;;;;;10444928;28;20090;-77
2022/06/29 15:41:36;;;;;;;3.22;2.85;;;;;;;;;;10444626;28;20029;-75
2022/06/29 15:46:36;;;;;;;4.63;2.75;;;;;;;;;;10444135;28;22379;-79
2022/06/29 15:51:36;;;;;;;4.75;2.90;;;;;;;;;;10442397;28;20847;-75
2022/06/29 15:56:36;;;;;;;3.88;2.67;;;;;;;;;;10437545;28;20474;-70
2022/06/29 16:01:37;;;;;;;4.55;2.50;;;;;;;;;;10442369;28;20025;-72
2022/06/29 16:06:37;;;;;;;5.43;3.45;;;;;;;;;;10434619;28;20376;-73
2022/06/29 16:16:56;;;;;;;6.90;2.63;;;;;;;;;;10441512;28;20049;-75
2022/06/29 16:21:57;;;;;;;6.32;3.53;;;;;;;;;;10441130;28;20498;-74
2022/06/29 16:26:57;;;;;;;4.97;2.83;;;;;;;;;;10440459;28;20100;-74
2022/06/29 16:31:57;;;;;;;6.80;2.90;;;;;;;;;;10430932;28;20029;-72
2022/06/29 16:36:58;;;;;;;3.78;3.38;;;;;;;;;;10427752;28;20024;-75
2022/06/29 16:41:58;;;;;;;5.88;3.50;;;;;;;;;;10436258;28;20029;-76
2022/06/29 16:46:58;;;;;;;5.80;3.80;;;;;;;;;;10433290;28;20045;-71
2022/06/29 16:51:59;;;;;;;7.15;2.90;;;;;;;;;;10434250;28;20030;-72
2022/06/29 16:56:59;;;;;;;5.50;3.58;;;;;;;;;;10419626;28;20021;-73
2022/06/29 17:01:59;;;;;;;5.73;3.43;;;;;;;;;;10422964;28;20051;-76
2022/06/29 17:07:00;;;;;;;6.00;3.30;;;;;;;;;;10419088;28;20079;-74
2022/06/29 17:12:00;;;;;;;9.57;4.93;;;;;;;;;;10431105;28;20037;-71
2022/06/29 17:17:00;;;;;;;7.55;4.00;;;;;;;;;;10421238;28;20587;-71
2022/06/29 17:22:00;;;;;;;5.82;4.15;;;;;;;;;;10429717;28;20037;-71
2022/06/29 17:27:01;;;;;;;5.47;3.58;;;;;;;;;;10417381;28;20120;-76
2022/06/29 17:32:01;;;;;;;4.28;3.70;;;;;;;;;;10417089;28;20521;-77
2022/06/29 17:37:01;;;;;;;5.38;4.00;;;;;;;;;;10421918;28;20082;-71
2022/06/29 17:42:01;;;;;;;9.10;3.43;;;;;;;;;;10416280;28;20039;-75
2022/06/29 17:47:03;;;;;;;10.18;3.40;;;;;;;;;;10424738;28;20061;-78
2022/06/29 17:52:04;;;;;;;10.20;4.60;;;;;;;;;;10430774;28;20021;-74
2022/06/29 17:57:04;;;;;;;9.75;4.00;;;;;;;;;;10431264;28;20283;-75
2022/06/29 18:02:05;;;;;;;7.93;3.88;;;;;;;;;;10432242;28;20029;-73
2022/06/29 18:07:05;;;;;;;9.07;4.47;;;;;;;;;;10425496;28;20017;-71
2022/06/29 18:12:06;;;;;;;7.00;4.22;;;;;;;;;;10419003;28;20642;-71
2022/06/29 18:17:07;;;;;;;8.43;3.90;;;;;;;;;;10415504;28;20025;-74
2022/06/29 18:22:07;;;;;;;5.68;4.43;;;;;;;;;;10413158;28;20025;-71
2022/06/29 18:27:07;;;;;;;5.43;3.70;;;;;;;;;;10417778;28;20531;-74
2022/06/29 18:32:08;;;;;;;5.40;3.75;;;;;;;;;;10424750;28;20674;-75
2022/06/29 18:37:08;;;;;;;8.63;4.20;;;;;;;;;;10425750;28;20831;-75
2022/06/29 18:42:08;;;;;;;8.30;4.43;;;;;;;;;;10428565;28;20025;-72
2022/06/29 18:47:08;;;;;;;4.40;3.67;;;;;;;;;;10420985;28;20053;-71
2022/06/29 18:52:09;;;;;;;10.90;4.25;;;;;;;;;;10425624;28;20091;-73
2022/06/29 18:57:09;;;;;;;5.82;4.22;;;;;;;;;;10420940;28;20029;-73
2022/06/29 19:02:09;;;;;;;6.07;3.75;;;;;;;;;;10424421;28;20033;-73
2022/06/29 19:07:10;;;;;;;10.77;4.03;;;;;;;;;;10420642;28;20462;-72
2022/06/29 19:12:10;;;;;;;6.90;4.43;;;;;;;;;;10423958;28;20142;-72
2022/06/29 19:17:10;;;;;;;6.57;4.27;;;;;;;;;;10425835;28;20083;-75
2022/06/29 19:22:11;;;;;;;10.35;4.95;;;;;;;;;;10427989;28;20788;-76
2022/06/29 19:27:11;;;;;;;8.95;4.82;;;;;;;;;;10433398;28;20083;-71
2022/06/29 19:32:11;;;;;;;9.98;5.03;;;;;;;;;;10428475;28;20399;-73
2022/06/29 19:37:13;;;;;;;8.00;4.97;;;;;;;;;;10432134;28;20021;-71
2022/06/29 19:42:13;;;;;;;6.93;4.97;;;;;;;;;;10410635;28;20356;-79
2022/06/29 19:47:14;;;;;;;7.65;4.70;;;;;;;;;;10430061;28;20103;-72
2022/06/29 19:52:18;;;;;;;9.63;4.43;;;;;;;;;;10443792;28;20585;-75
2022/06/29 19:57:18;;;;;;;7.10;4.88;;;;;;;;;;10442177;28;20459;-72
2022/06/29 20:02:19;;;;;;;8.73;4.85;;;;;;;;;;10435801;28;20028;-76
2022/06/29 20:07:19;;;;;;;13.20;5.53;;;;;;;;;;10441337;28;20032;-76
2022/06/29 20:12:20;;;;;;;8.00;4.55;;;;;;;;;;10428763;28;20033;-74
2022/06/29 20:17:20;;;;;;;11.55;5.45;;;;;;;;;;10428996;28;20021;-74
2022/06/29 20:22:20;;;;;;;12.37;4.50;;;;;;;;;;10442755;28;20032;-72
2022/06/29 20:27:21;;;;;;;8.15;4.25;;;;;;;;;;10441077;28;20024;-76
2022/06/29 20:32:21;;;;;;;8.00;4.20;;;;;;;;;;10435519;28;20036;-77
2022/06/29 20:37:21;;;;;;;6.03;4.67;;;;;;;;;;10440714;28;20061;-73
2022/06/29 20:42:21;;;;;;;12.43;4.38;;;;;;;;;;10441393;28;20027;-73
2022/06/29 20:47:22;;;;;;;10.20;5.00;;;;;;;;;;10441135;28;20048;-74
2022/06/29 20:52:22;;;;;;;7.72;4.70;;;;;;;;;;10447006;28;20029;-76
2022/06/29 20:57:24;;;;;;;7.23;4.33;;;;;;;;;;10448436;28;20442;-76
2022/06/29 21:02:24;;;;;;;6.18;4.10;;;;;;;;;;10438003;28;20386;-73
2022/06/29 21:07:24;;;;;;;8.95;4.20;;;;;;;;;;10441061;28;20013;-72
2022/06/29 21:12:25;;;;;;;5.40;4.73;;;;;;;;;;10440582;28;20021;-73
2022/06/29 21:17:26;;;;;;;25.48;6.82;;;;;;;;;;10439701;28;20021;-74
2022/06/29 21:22:26;;;;;;;7.18;4.68;;;;;;;;;;10439393;28;20029;-76
2022/06/29 21:27:26;;;;;;;12.40;5.00;;;;;;;;;;10440725;28;20021;-74
2022/06/29 21:32:26;;;;;;;6.10;4.80;;;;;;;;;;10439509;28;20021;-73
2022/06/29 21:37:27;;;;;;;11.90;5.38;;;;;;;;;;10439398;28;20017;-73
2022/06/29 21:42:27;;;;;;;7.60;4.30;;;;;;;;;;10439505;28;20595;-74
2022/06/29 21:47:27;;;;;;;6.47;4.47;;;;;;;;;;10438154;28;20537;-78
2022/06/29 21:52:27;;;;;;;8.07;4.63;;;;;;;;;;10438674;28;20526;-74
2022/06/29 21:57:27;;;;;;;5.93;4.55;;;;;;;;;;10438857;28;20013;-77
2022/06/29 22:02:28;;;;;;;5.97;4.63;;;;;;;;;;10435407;28;20029;-72
2022/06/29 22:07:28;;;;;;;6.20;5.18;;;;;;;;;;10438473;28;20021;-76
2022/06/29 22:12:28;;;;;;;9.73;4.95;;;;;;;;;;10437963;28;20017;-76
2022/06/29 22:17:29;;;;;;;7.38;4.93;;;;;;;;;;10434779;28;20026;-77
2022/06/29 22:22:29;;;;;;;8.05;4.65;;;;;;;;;;10439393;28;20103;-75
2022/06/29 22:27:29;;;;;;;5.07;4.43;;;;;;;;;;10437838;28;20067;-73
2022/06/29 22:32:30;;;;;;;8.82;5.20;;;;;;;;;;10438610;28;20031;-76
2022/06/29 22:37:30;;;;;;;6.88;4.72;;;;;;;;;;10437863;28;20017;-73
2022/06/29 22:42:30;;;;;;;11.35;4.80;;;;;;;;;;10421437;28;20116;-77
2022/06/29 22:47:31;;;;;;;6.05;4.93;;;;;;;;;;10437210;28;20119;-72
2022/06/29 22:52:31;;;;;;;5.68;5.00;;;;;;;;;;10438391;28;20525;-76
2022/06/29 22:57:31;;;;;;;8.30;4.75;;;;;;;;;;10437819;28;20067;-72
2022/06/29 23:02:31;;;;;;;7.10;5.38;;;;;;;;;;10439221;28;20017;-75
2022/06/29 23:07:32;;;;;;;7.97;5.25;;;;;;;;;;10438843;28;20017;-73
2022/06/29 23:12:32;;;;;;;8.15;4.78;;;;;;;;;;10440477;28;20111;-75
2022/06/29 23:17:32;;;;;;;17.00;6.00;;;;;;;;;;10445535;28;20513;-73
2022/06/29 23:22:33;;;;;;;11.40;5.28;;;;;;;;;;10428196;28;20013;-77
2022/06/29 23:27:33;;;;;;;8.17;5.40;;;;;;;;;;10444805;28;20024;-71
2022/06/29 23:32:33;;;;;;;11.80;5.30;;;;;;;;;;10444415;28;20628;-76
2022/06/29 23:37:33;;;;;;;9.45;4.55;;;;;;;;;;10445305;28;20017;-76
2022/06/29 23:42:34;;;;;;;6.20;5.18;;;;;;;;;;10432390;28;20029;-73
2022/06/29 23:47:34;;;;;;;11.30;5.05;;;;;;;;;;10438712;28;20045;-76
2022/06/29 23:52:35;;;;;;;6.70;4.22;;;;;;;;;;10430342;28;20052;-77
2022/06/29 23:57:35;;;;;;;5.93;4.50;;;;;;;;;;10437640;28;20387;-76
